Map

Track Data

SID SEASON NUMBER BASIN SUBBASIN NAME ISO_TIME NATURE LAT LON WMO_WIND WMO_PRES WMO_AGENCY TRACK_TYPE DIST2LAND LANDFALL IFLAG USA_AGENCY USA_ATCF_ID USA_LAT USA_LON USA_RECORD USA_STATUS USA_WIND USA_PRES USA_SSHS USA_R34_NE USA_R34_SE USA_R34_SW USA_R34_NW USA_R50_NE USA_R50_SE USA_R50_SW USA_R50_NW USA_R64_NE USA_R64_SE USA_R64_SW USA_R64_NW USA_POCI USA_ROCI USA_RMW USA_EYE TOKYO_LAT TOKYO_LON TOKYO_GRADE TOKYO_WIND TOKYO_PRES TOKYO_R50_DIR TOKYO_R50_LONG TOKYO_R50_SHORT TOKYO_R30_DIR TOKYO_R30_LONG TOKYO_R30_SHORT TOKYO_LAND CMA_LAT CMA_LON CMA_CAT CMA_WIND CMA_PRES HKO_LAT HKO_LON HKO_CAT HKO_WIND HKO_PRES NEWDELHI_LAT NEWDELHI_LON NEWDELHI_GRADE NEWDELHI_WIND NEWDELHI_PRES NEWDELHI_CI NEWDELHI_DP NEWDELHI_POCI REUNION_LAT REUNION_LON REUNION_TYPE REUNION_WIND REUNION_PRES REUNION_TNUM REUNION_CI REUNION_RMW REUNION_R34_NE REUNION_R34_SE REUNION_R34_SW REUNION_R34_NW REUNION_R50_NE REUNION_R50_SE REUNION_R50_SW REUNION_R50_NW REUNION_R64_NE REUNION_R64_SE REUNION_R64_SW REUNION_R64_NW BOM_LAT BOM_LON BOM_TYPE BOM_WIND BOM_PRES BOM_TNUM BOM_CI BOM_RMW BOM_R34_NE BOM_R34_SE BOM_R34_SW BOM_R34_NW BOM_R50_NE BOM_R50_SE BOM_R50_SW BOM_R50_NW BOM_R64_NE BOM_R64_SE BOM_R64_SW BOM_R64_NW BOM_ROCI BOM_POCI BOM_EYE BOM_POS_METHOD BOM_PRES_METHOD NADI_LAT NADI_LON NADI_CAT NADI_WIND NADI_PRES WELLINGTON_LAT WELLINGTON_LON WELLINGTON_WIND WELLINGTON_PRES DS824_LAT DS824_LON DS824_STAGE DS824_WIND DS824_PRES TD9636_LAT TD9636_LON TD9636_STAGE TD9636_WIND TD9636_PRES TD9635_LAT TD9635_LON TD9635_WIND TD9635_PRES TD9635_ROCI NEUMANN_LAT NEUMANN_LON NEUMANN_CLASS NEUMANN_WIND NEUMANN_PRES MLC_LAT MLC_LON MLC_CLASS MLC_WIND MLC_PRES USA_GUST BOM_GUST BOM_GUST_PER REUNION_GUST REUNION_GUST_PER USA_SEAHGT USA_SEARAD_NE USA_SEARAD_SE USA_SEARAD_SW USA_SEARAD_NW STORM_SPEED STORM_DIR
1981192N13253 1981 48 EP MM DORA 1981-07-10 18:00:00 TS 13.3000 -106.900 25 hurdat_epa main 667 667 O_________O___ hurdat_epa EP041981 13.3000 -106.900 TD 25 -1 13.3000 -106.900 1 25 6 288
1981192N13253 1981 48 EP MM DORA 1981-07-10 21:00:00 TS 13.3999 -107.210 main 676 676 P_________P___ EP041981 13.4001 -107.210 TD 27 -1 13.3993 -107.209 1 27 6 289
1981192N13253 1981 48 EP MM DORA 1981-07-11 00:00:00 TS 13.5000 -107.500 30 hurdat_epa main 686 684 O_________O___ hurdat_epa EP041981 13.5000 -107.500 TD 30 -1 13.5000 -107.500 1 30 6 291
1981192N13253 1981 48 EP MM DORA 1981-07-11 03:00:00 TS 13.6008 -107.758 main 698 697 P_________P___ EP041981 13.6000 -107.758 TD 32 -1 13.6032 -107.759 1 32 5 293
1981192N13253 1981 48 EP MM DORA 1981-07-11 06:00:00 TS 13.7016 -108.000 35 hurdat_epa main 703 699 O_________P___ hurdat_epa EP041981 13.7000 -108.000 TS 35 0 13.7065 -108.000 1 35 5 293
1981192N13253 1981 48 EP MM DORA 1981-07-11 09:00:00 TS 13.8073 -108.248 main 704 704 P_________P___ EP041981 13.8075 -108.250 TS 37 0 13.8066 -108.241 1 37 5 292
1981192N13253 1981 48 EP MM DORA 1981-07-11 12:00:00 TS 13.9000 -108.500 40 hurdat_epa main 712 712 O_________O___ hurdat_epa EP041981 13.9000 -108.500 TS 40 0 13.9000 -108.500 2 40 5 287
1981192N13253 1981 48 EP MM DORA 1981-07-11 15:00:00 TS 13.9559 -108.744 main 715 715 P_________P___ EP041981 13.9499 -108.728 TS 45 0 13.9739 -108.791 2 43 5 282
1981192N13253 1981 48 EP MM DORA 1981-07-11 18:00:00 TS 14.0106 -109.026 50 hurdat_epa main 734 734 O_________P___ hurdat_epa EP041981 14.0000 -109.000 TS 50 0 14.0423 -109.105 2 47 6 283
1981192N13253 1981 48 EP MM DORA 1981-07-11 21:00:00 TS 14.0980 -109.393 main 752 752 P_________P___ EP041981 14.0925 -109.377 TS 52 0 14.1145 -109.442 2 51 8 284
1981192N13253 1981 48 EP MM DORA 1981-07-12 00:00:00 TS 14.2000 -109.800 55 hurdat_epa main 772 772 O_________O___ hurdat_epa EP041981 14.2000 -109.800 TS 55 0 14.2000 -109.800 2 55 8 284
1981192N13253 1981 48 EP MM DORA 1981-07-12 03:00:00 TS 14.2980 -110.194 main 794 794 P_________P___ EP041981 14.2924 -110.200 TS 55 0 14.3146 -110.174 2 55 8 285
1981192N13253 1981 48 EP MM DORA 1981-07-12 06:00:00 TS 14.4106 -110.592 55 hurdat_epa main 817 817 O_________P___ hurdat_epa EP041981 14.4000 -110.600 TS 55 0 14.4424 -110.570 2 55 8 288
1981192N13253 1981 48 EP MM DORA 1981-07-12 09:00:00 TS 14.5503 -111.001 main 832 832 P_________P___ EP041981 14.5425 -111.007 TS 55 0 14.5739 -110.981 2 55 8 290
1981192N13253 1981 48 EP MM DORA 1981-07-12 12:00:00 TS 14.7000 -111.400 55 hurdat_epa main 855 855 O_________O___ hurdat_epa EP041981 14.7000 -111.400 TS 55 0 14.7000 -111.400 2 55 8 292
1981192N13253 1981 48 EP MM DORA 1981-07-12 15:00:00 TS 14.8452 -111.754 main 881 874 P_________P___ EP041981 14.8648 -111.735 TS 57 0 14.7866 -111.810 2 57 8 291
1981192N13253 1981 48 EP MM DORA 1981-07-12 18:00:00 TS 14.9674 -112.132 60 hurdat_epa main 892 892 O_________P___ hurdat_epa EP041981 15.0000 -112.100 TS 60 0 14.8696 -112.228 2 60 8 282
1981192N13253 1981 48 EP MM DORA 1981-07-12 21:00:00 TS 15.0182 -112.598 main 925 924 P_________P___ EP041981 15.0350 -112.578 TS 62 0 14.9678 -112.657 2 62 9 278
1981192N13253 1981 48 EP MM DORA 1981-07-13 00:00:00 TS 15.1000 -113.100 65 hurdat_epa main 931 926 O_________O___ hurdat_epa EP041981 15.1000 -113.100 HU 65 1 15.1000 -113.100 3 65 10 287
1981192N13253 1981 48 EP MM DORA 1981-07-13 03:00:00 TS 15.3188 -113.593 main 930 918 P_________P___ EP041981 15.3274 -113.607 HU 67 1 15.2928 -113.548 3 67 11 297
1981192N13253 1981 48 EP MM DORA 1981-07-13 06:00:00 TS 15.5799 -114.078 70 hurdat_epa main 922 917 O_________P___ hurdat_epa EP041981 15.6000 -114.100 HU 70 1 15.5195 -114.012 3 70 10 298
1981192N13253 1981 48 EP MM DORA 1981-07-13 09:00:00 TS 15.7958 -114.525 main 923 923 P_________P___ EP041981 15.8072 -114.535 HU 72 1 15.7614 -114.495 3 72 10 295
1981192N13253 1981 48 EP MM DORA 1981-07-13 12:00:00 TS 16.0000 -115.000 75 hurdat_epa main 932 932 O_________O___ hurdat_epa EP041981 16.0000 -115.000 HU 75 1 16.0000 -115.000 4 75 11 292
1981192N13253 1981 48 EP MM DORA 1981-07-13 15:00:00 TS 16.2058 -115.572 main 951 949 P_________P___ EP041981 16.2001 -115.593 HU 72 1 16.2230 -115.512 4 73 12 290
1981192N13253 1981 48 EP MM DORA 1981-07-13 18:00:00 TS 16.4092 -116.162 70 hurdat_epa main 974 972 O_________P___ hurdat_epa EP041981 16.4000 -116.200 HU 70 1 16.4368 -116.048 4 72 11 292
1981192N13253 1981 48 EP MM DORA 1981-07-13 21:00:00 TS 16.6247 -116.677 main 993 993 P_________P___ EP041981 16.6222 -116.700 HU 70 1 16.6322 -116.609 4 71 11 291
1981192N13253 1981 48 EP MM DORA 1981-07-14 00:00:00 TS 16.8000 -117.200 70 hurdat_epa main 1015 1015 O_________O___ hurdat_epa EP041981 16.8000 -117.200 HU 70 1 16.8000 -117.200 4 70 11 283
1981192N13253 1981 48 EP MM DORA 1981-07-14 03:00:00 TS 16.8741 -117.781 main 1053 1053 P_________P___ EP041981 16.8573 -117.770 HU 70 1 16.9243 -117.814 4 68 12 276
1981192N13253 1981 48 EP MM DORA 1981-07-14 06:00:00 TS 16.9305 -118.414 70 hurdat_epa main 1090 1090 O_________P___ hurdat_epa EP041981 16.9000 -118.400 HU 70 1 17.0219 -118.456 4 67 13 278
1981192N13253 1981 48 EP MM DORA 1981-07-14 09:00:00 TS 17.0589 -119.094 main 1117 1117 P_________P___ EP041981 17.0424 -119.085 HU 67 1 17.1085 -119.120 4 66 14 281
1981192N13253 1981 48 EP MM DORA 1981-07-14 12:00:00 TS 17.2000 -119.800 65 hurdat_epa main 1158 1158 O_________O___ hurdat_epa EP041981 17.2000 -119.800 HU 65 1 17.2000 -119.800 4 65 14 280
1981192N13253 1981 48 EP MM DORA 1981-07-14 15:00:00 TS 17.3023 -120.503 main 1201 1201 P_________P___ EP041981 17.2998 -120.500 HU 72 1 17.3098 -120.510 4 68 14 279
1981192N13253 1981 48 EP MM DORA 1981-07-14 18:00:00 TS 17.4069 -121.208 80 hurdat_epa main 1246 1246 O_________P___ hurdat_epa EP041981 17.4000 -121.200 HU 80 1 17.4277 -121.230 4 72 14 280
1981192N13253 1981 48 EP MM DORA 1981-07-14 21:00:00 TS 17.5517 -121.926 main 1287 1287 P_________P___ EP041981 17.5500 -121.922 HU 80 1 17.5567 -121.935 4 76 14 282
1981192N13253 1981 48 EP MM DORA 1981-07-15 00:00:00 TS 17.7000 -122.600 80 hurdat_epa main 1337 1337 O_________O___ hurdat_epa EP041981 17.7000 -122.600 HU 80 1 17.7000 -122.600 4 80 12 282
1981192N13253 1981 48 EP MM DORA 1981-07-15 03:00:00 TS 17.8054 -123.179 main 1381 1381 P_________P___ EP041981 17.7846 -123.173 HU 75 1 17.8677 -123.197 4 77 11 283
1981192N13253 1981 48 EP MM DORA 1981-07-15 06:00:00 TS 17.9372 -123.713 70 hurdat_epa main 1410 1408 O_________P___ hurdat_epa EP041981 17.9000 -123.700 HU 70 1 18.0487 -123.752 4 75 11 289
1981192N13253 1981 48 EP MM DORA 1981-07-15 09:00:00 TS 18.1588 -124.263 main 1424 1424 P_________P___ EP041981 18.1349 -124.257 HU 70 1 18.2304 -124.282 4 72 11 294
1981192N13253 1981 48 EP MM DORA 1981-07-15 12:00:00 TS 18.4000 -124.800 70 hurdat_epa main 1442 1441 O_________O___ hurdat_epa EP041981 18.4000 -124.800 HU 70 1 18.4000 -124.800 4 70 11 294
1981192N13253 1981 48 EP MM DORA 1981-07-15 15:00:00 TS 18.6081 -125.310 main 1462 1461 P_________P___ EP041981 18.6297 -125.300 HU 62 0 18.5430 -125.341 4 65 10 291
1981192N13253 1981 48 EP MM DORA 1981-07-15 18:00:00 TS 18.7680 -125.818 55 hurdat_epa main 1483 1483 O_________P___ hurdat_epa EP041981 18.8000 -125.800 TS 55 0 18.6720 -125.873 4 60 10 283
1981192N13253 1981 48 EP MM DORA 1981-07-15 21:00:00 TS 18.8462 -126.361 main 1529 1522 P_________P___ EP041981 18.8650 -126.350 TS 52 0 18.7900 -126.394 4 55 10 277
1981192N13253 1981 48 EP MM DORA 1981-07-16 00:00:00 TS 18.9000 -126.900 50 hurdat_epa main 1561 1561 O_________O___ hurdat_epa EP041981 18.9000 -126.900 TS 50 0 18.9000 -126.900 2 50 10 279
1981192N13253 1981 48 EP MM DORA 1981-07-16 03:00:00 TS 18.9986 -127.407 main 1593 1593 P_________P___ EP041981 18.9924 -127.415 TS 45 0 19.0173 -127.383 2 46 10 282
1981192N13253 1981 48 EP MM DORA 1981-07-16 06:00:00 TS 19.1066 -127.888 40 hurdat_epa main 1627 1627 O_________P___ hurdat_epa EP041981 19.1000 -127.900 TS 40 0 19.1266 -127.854 2 42 9 284
1981192N13253 1981 48 EP MM DORA 1981-07-16 09:00:00 TS 19.2111 -128.343 main 1653 1653 P_________P___ EP041981 19.2073 -128.350 TS 37 0 19.2225 -128.322 2 38 9 283
1981192N13253 1981 48 EP MM DORA 1981-07-16 12:00:00 TS 19.3000 -128.800 35 hurdat_epa main 1688 1688 O_________O___ hurdat_epa EP041981 19.3000 -128.800 TS 35 0 19.3000 -128.800 2 35 9 279
1981192N13253 1981 48 EP MM DORA 1981-07-16 15:00:00 TS 19.3594 -129.289 main 1724 1724 P_________P___ EP041981 19.3604 -129.287 TS 30 -1 19.3563 -129.295 2 30 9 276
1981192N13253 1981 48 EP MM DORA 1981-07-16 18:00:00 TS 19.4000 -129.800 25 hurdat_epa main 1767 O_________O___ hurdat_epa EP041981 19.4000 -129.800 TD 25 -1 19.4000 -129.800 1 25 10 275

About IBTrACS Database

This database is a web-friendly format of International Best Track Archive for Climate Stewardship (IBTrACS), a global best track data archive curated by NOAA dating back to 1842.

Updated: 2021-10-08